createdAt,value
2023-04-25T00:02:16.279Z,2.00
2023-04-25T00:04:43.670Z,2.00
2023-04-25T00:07:11.825Z,1.90
2023-04-25T00:09:38.799Z,1.90
2023-04-25T00:12:06.113Z,1.90
2023-04-25T00:14:35.141Z,1.70
2023-04-25T00:17:02.571Z,1.70
2023-04-25T00:19:29.717Z,1.70
2023-04-25T00:21:56.979Z,1.70
2023-04-25T00:24:24.046Z,1.60
2023-04-25T00:26:51.078Z,1.50
2023-04-25T00:29:18.245Z,1.50
2023-04-25T00:31:45.408Z,1.60
2023-04-25T00:34:12.468Z,1.60
2023-04-25T00:36:39.446Z,1.60
2023-04-25T00:39:07.458Z,1.70
2023-04-25T00:41:34.418Z,1.70
2023-04-25T00:44:03.289Z,1.80
2023-04-25T00:46:30.995Z,1.90
2023-04-25T00:48:58.064Z,1.90
2023-04-25T00:51:27.994Z,1.80
2023-04-25T00:53:55.109Z,1.80
2023-04-25T00:56:22.479Z,1.80
2023-04-25T00:58:50.880Z,1.70
2023-04-25T01:01:18.006Z,1.70
2023-04-25T01:03:47.971Z,1.80
2023-04-25T01:06:15.106Z,1.80
2023-04-25T01:08:42.154Z,1.70
2023-04-25T01:11:09.383Z,1.70
2023-04-25T01:13:36.834Z,1.70
2023-04-25T01:16:04.383Z,1.70
2023-04-25T01:18:31.330Z,1.60
2023-04-25T01:21:07.859Z,1.70
2023-04-25T01:23:34.920Z,1.70
2023-04-25T01:26:02.437Z,1.70
2023-04-25T01:28:29.657Z,1.80
2023-04-25T01:30:58.008Z,1.80
2023-04-25T01:33:25.006Z,1.80
2023-04-25T01:35:52.171Z,1.70
2023-04-25T01:38:19.322Z,1.70
2023-04-25T01:40:48.175Z,1.60
2023-04-25T01:43:15.439Z,1.60
2023-04-25T01:45:43.565Z,1.60
2023-04-25T01:48:12.218Z,1.60
2023-04-25T01:50:40.662Z,1.50
2023-04-25T01:53:08.554Z,1.60
2023-04-25T01:55:35.708Z,1.60
2023-04-25T01:58:04.267Z,1.60
2023-04-25T02:00:31.292Z,1.60
2023-04-25T02:03:01.489Z,1.60
2023-04-25T02:05:28.763Z,1.60
2023-04-25T02:07:56.151Z,1.60
2023-04-25T02:10:23.184Z,1.50
2023-04-25T02:12:50.121Z,1.50
2023-04-25T02:15:17.146Z,1.60
2023-04-25T02:17:44.093Z,1.60
2023-04-25T02:20:11.636Z,1.60
2023-04-25T02:22:38.641Z,1.60
2023-04-25T02:25:05.968Z,1.50
2023-04-25T02:27:32.909Z,1.50
2023-04-25T02:29:59.847Z,1.40
2023-04-25T02:32:28.008Z,1.40
2023-04-25T02:34:55.391Z,1.40
2023-04-25T02:37:22.308Z,1.30
2023-04-25T02:39:49.299Z,1.30
2023-04-25T02:42:16.316Z,1.30
2023-04-25T02:44:43.703Z,1.30
2023-04-25T02:47:10.761Z,1.30
2023-04-25T02:49:37.673Z,1.30
2023-04-25T02:52:04.772Z,1.30
2023-04-25T02:54:32.032Z,1.40
2023-04-25T02:56:59.356Z,1.40
2023-04-25T02:59:26.540Z,1.40
2023-04-25T03:01:53.518Z,1.40
2023-04-25T03:04:20.534Z,1.40
2023-04-25T03:06:47.826Z,1.30
2023-04-25T03:09:14.779Z,1.20
2023-04-25T03:11:41.969Z,1.20
2023-04-25T03:14:09.192Z,1.20
2023-04-25T03:16:36.207Z,1.30
2023-04-25T03:19:04.571Z,1.30
2023-04-25T03:21:35.976Z,1.30
2023-04-25T03:24:04.787Z,1.20
2023-04-25T03:26:32.180Z,1.20
2023-04-25T03:28:59.076Z,1.20
2023-04-25T03:31:26.189Z,1.20
2023-04-25T03:33:53.428Z,1.20
2023-04-25T03:36:20.477Z,1.20
2023-04-25T03:38:47.657Z,1.20
2023-04-25T03:41:14.573Z,1.10
2023-04-25T03:43:41.634Z,1.10
2023-04-25T03:46:08.611Z,1.10
2023-04-25T03:48:35.925Z,1.10
2023-04-25T03:51:02.921Z,1.10
2023-04-25T03:53:30.080Z,1.10
2023-04-25T03:55:57.324Z,1.10
2023-04-25T03:58:25.449Z,1.00
2023-04-25T04:00:52.433Z,1.00
2023-04-25T04:03:19.505Z,1.10
2023-04-25T04:05:47.704Z,1.10
2023-04-25T04:08:14.785Z,1.10
2023-04-25T04:10:41.757Z,1.10
2023-04-25T04:13:08.662Z,1.00
2023-04-25T04:15:35.812Z,1.10
2023-04-25T04:18:05.576Z,1.10
2023-04-25T04:20:32.626Z,1.10
2023-04-25T04:22:59.682Z,1.10
2023-04-25T04:25:27.294Z,1.00
2023-04-25T04:27:57.171Z,1.00
2023-04-25T04:30:25.517Z,0.90
2023-04-25T04:32:53.565Z,1.00
2023-04-25T04:35:20.691Z,1.00
2023-04-25T04:37:48.917Z,1.10
2023-04-25T04:40:16.813Z,1.10
2023-04-25T04:42:44.891Z,1.20
2023-04-25T04:45:12.208Z,1.10
2023-04-25T04:47:40.630Z,1.20
2023-04-25T04:50:10.449Z,1.10
2023-04-25T04:52:38.413Z,1.00
2023-04-25T04:55:07.052Z,1.00
2023-04-25T04:57:34.094Z,1.00
2023-04-25T05:00:01.619Z,1.10
2023-04-25T05:02:29.137Z,1.00
2023-04-25T05:04:57.936Z,1.10
2023-04-25T05:07:25.231Z,1.10
2023-04-25T05:09:52.311Z,1.10
2023-04-25T05:12:19.224Z,1.20
2023-04-25T05:14:46.416Z,1.20
2023-04-25T05:17:13.532Z,1.20
2023-04-25T05:19:40.590Z,1.10
2023-04-25T05:22:07.569Z,1.10
2023-04-25T05:24:34.490Z,1.10
2023-04-25T05:27:01.479Z,1.10
2023-04-25T05:29:28.401Z,1.10
2023-04-25T05:31:55.484Z,1.10
2023-04-25T05:34:22.441Z,1.20
2023-04-25T05:36:49.839Z,1.20
2023-04-25T05:39:18.437Z,1.20
2023-04-25T05:41:45.831Z,1.20
2023-04-25T05:44:12.796Z,1.20
2023-04-25T05:46:39.753Z,1.10
2023-04-25T05:49:06.761Z,1.20
2023-04-25T05:51:33.796Z,1.20
2023-04-25T05:54:00.883Z,1.30
2023-04-25T05:56:27.836Z,1.20
2023-04-25T05:58:54.925Z,1.20
2023-04-25T06:01:23.244Z,1.20
2023-04-25T06:03:50.813Z,1.20
2023-04-25T06:06:18.122Z,1.20
2023-04-25T06:08:45.147Z,1.20
2023-04-25T06:11:12.572Z,1.30
2023-04-25T06:13:39.569Z,1.30
2023-04-25T06:16:07.119Z,1.60
2023-04-25T06:18:34.305Z,1.70
2023-04-25T06:21:01.625Z,1.80
2023-04-25T06:23:28.986Z,1.90
2023-04-25T06:25:55.919Z,2.00
2023-04-25T06:28:23.202Z,2.10
2023-04-25T06:30:50.366Z,2.30
2023-04-25T06:33:17.371Z,2.60
2023-04-25T06:35:44.313Z,2.60
2023-04-25T06:38:11.412Z,2.70
2023-04-25T06:40:38.329Z,2.70
2023-04-25T06:43:05.788Z,2.70
2023-04-25T06:45:32.779Z,2.80
2023-04-25T06:47:59.739Z,2.90
2023-04-25T06:50:26.781Z,3.00
2023-04-25T06:52:53.771Z,2.90
2023-04-25T06:55:20.973Z,2.70
2023-04-25T06:57:47.912Z,2.80
2023-04-25T07:00:15.373Z,2.80
2023-04-25T07:02:44.537Z,2.80
2023-04-25T07:05:11.782Z,3.00
2023-04-25T07:07:38.673Z,3.20
2023-04-25T07:10:06.603Z,3.40
2023-04-25T07:12:33.631Z,3.40
2023-04-25T07:15:00.654Z,3.60
2023-04-25T07:17:28.129Z,3.80
2023-04-25T07:19:55.050Z,3.90
2023-04-25T07:22:22.021Z,3.90
2023-04-25T07:24:50.040Z,3.90
2023-04-25T07:27:17.050Z,3.70
2023-04-25T07:29:44.111Z,3.60
2023-04-25T07:32:13.493Z,3.60
2023-04-25T07:34:40.581Z,3.30
2023-04-25T07:37:07.625Z,3.60
2023-04-25T07:39:34.790Z,4.20
2023-04-25T07:42:03.220Z,4.60
2023-04-25T07:44:31.529Z,5.10
2023-04-25T07:46:58.877Z,5.40
2023-04-25T07:49:25.861Z,5.70
2023-04-25T07:51:52.830Z,6.20
2023-04-25T07:54:19.863Z,6.30
2023-04-25T07:56:52.547Z,6.40
2023-04-25T07:59:21.013Z,6.10
2023-04-25T08:01:47.909Z,6.00
2023-04-25T08:04:15.428Z,6.10
2023-04-25T08:06:43.123Z,6.10
2023-04-25T08:09:10.785Z,6.30
2023-04-25T08:11:38.022Z,6.70
2023-04-25T08:14:05.228Z,6.80
2023-04-25T08:16:32.217Z,6.70
2023-04-25T08:19:00.380Z,6.60
2023-04-25T08:21:28.760Z,6.00
2023-04-25T08:23:55.727Z,5.60
2023-04-25T08:26:22.680Z,5.20
2023-04-25T08:28:49.840Z,5.30
2023-04-25T08:31:17.021Z,5.80
2023-04-25T08:33:44.779Z,5.70
2023-04-25T08:36:11.945Z,4.40
2023-04-25T08:38:39.129Z,3.60
2023-04-25T08:41:07.589Z,3.30
2023-04-25T08:43:36.395Z,3.20
2023-04-25T08:46:04.803Z,3.70
2023-04-25T08:48:35.359Z,4.40
2023-04-25T08:51:05.017Z,5.20
2023-04-25T08:53:34.269Z,5.80
2023-04-25T08:56:07.124Z,6.20
2023-04-25T08:58:34.441Z,6.40
2023-04-25T09:01:01.559Z,6.80
2023-04-25T09:03:29.336Z,6.80
2023-04-25T09:05:57.453Z,7.20
2023-04-25T09:08:24.624Z,7.10
2023-04-25T09:10:51.624Z,7.50
2023-04-25T09:13:27.984Z,7.90
2023-04-25T09:15:59.242Z,8.00
2023-04-25T09:18:31.433Z,7.60
2023-04-25T09:21:13.764Z,7.50
2023-04-25T09:24:00.678Z,6.90
2023-04-25T09:26:27.855Z,6.30
2023-04-25T09:29:08.296Z,5.90
2023-04-25T09:31:35.508Z,5.80
2023-04-25T09:34:03.050Z,5.90
2023-04-25T09:36:31.722Z,6.00
2023-04-25T09:39:02.512Z,6.10
2023-04-25T09:41:29.534Z,6.20
2023-04-25T09:43:59.905Z,6.90
2023-04-25T09:46:33.738Z,7.60
2023-04-25T09:49:08.814Z,7.80
2023-04-25T09:51:35.790Z,8.70
2023-04-25T09:54:02.754Z,9.20
2023-04-25T09:56:32.863Z,9.50
2023-04-25T09:59:00.040Z,9.80
2023-04-25T10:01:28.683Z,9.40
2023-04-25T10:03:59.932Z,9.10
2023-04-25T10:06:29.783Z,8.80
2023-04-25T10:08:57.281Z,7.90
2023-04-25T10:11:26.156Z,7.40
2023-04-25T10:13:54.786Z,7.60
2023-04-25T10:16:22.752Z,8.30
2023-04-25T10:18:50.262Z,9.20
2023-04-25T10:21:18.675Z,9.40
2023-04-25T10:23:46.782Z,8.70
2023-04-25T10:26:14.441Z,8.40
2023-04-25T10:28:58.890Z,6.50
2023-04-25T10:31:26.880Z,4.80
2023-04-25T10:33:54.854Z,4.00
2023-04-25T10:36:23.758Z,3.90
2023-04-25T10:38:52.055Z,4.10
2023-04-25T10:41:21.558Z,4.60
2023-04-25T10:43:50.615Z,5.20
2023-04-25T10:46:17.885Z,5.70
2023-04-25T10:48:52.770Z,6.30
2023-04-25T10:51:47.301Z,6.90
2023-04-25T10:54:21.281Z,7.10
2023-04-25T10:56:50.691Z,7.10
2023-04-25T10:59:22.498Z,7.60
2023-04-25T11:01:53.969Z,9.10
2023-04-25T11:04:31.583Z,10.40
2023-04-25T11:07:24.521Z,11.40
2023-04-25T11:09:51.472Z,12.10
2023-04-25T11:12:18.703Z,12.60
2023-04-25T11:14:45.703Z,12.80
2023-04-25T11:17:12.954Z,12.80
2023-04-25T11:19:39.985Z,12.00
2023-04-25T11:22:07.915Z,11.90
2023-04-25T11:24:36.153Z,12.20
2023-04-25T11:27:05.028Z,12.50
2023-04-25T11:29:33.454Z,13.00
2023-04-25T11:32:02.341Z,12.50
2023-04-25T11:34:34.193Z,12.50
2023-04-25T11:37:03.594Z,12.70
2023-04-25T11:39:31.133Z,13.10
2023-04-25T11:41:58.212Z,13.50
2023-04-25T11:44:25.354Z,13.00
2023-04-25T11:46:52.321Z,11.90
2023-04-25T11:49:19.540Z,10.10
2023-04-25T11:51:48.473Z,8.40
2023-04-25T11:54:16.576Z,7.10
2023-04-25T11:56:44.670Z,7.50
2023-04-25T11:59:12.982Z,7.50
2023-04-25T12:01:42.727Z,7.30
2023-04-25T12:04:24.394Z,7.80
2023-04-25T12:06:53.729Z,8.00
2023-04-25T12:09:28.294Z,8.90
2023-04-25T12:11:59.984Z,9.90
2023-04-25T12:14:29.959Z,10.90
2023-04-25T12:16:59.467Z,11.50
2023-04-25T12:19:27.165Z,12.10
2023-04-25T12:21:58.365Z,12.60
2023-04-25T12:24:28.692Z,13.10
2023-04-25T12:27:05.354Z,13.20
2023-04-25T12:29:41.886Z,12.50
2023-04-25T12:32:15.475Z,12.20
2023-04-25T12:34:42.721Z,12.20
2023-04-25T12:37:09.883Z,13.00
2023-04-25T12:39:36.798Z,13.00
2023-04-25T12:42:06.136Z,13.00
2023-04-25T12:44:35.397Z,12.50
2023-04-25T12:47:02.628Z,12.40
2023-04-25T12:49:29.948Z,11.80
2023-04-25T12:51:56.859Z,12.00
2023-04-25T12:54:23.874Z,12.40
2023-04-25T12:56:51.871Z,11.90
2023-04-25T12:59:19.086Z,12.00
2023-04-25T13:01:46.715Z,12.10
2023-04-25T13:04:13.984Z,11.40
2023-04-25T13:06:40.912Z,11.80
2023-04-25T13:09:08.037Z,12.10
2023-04-25T13:11:34.932Z,12.30
2023-04-25T13:14:02.073Z,12.20
2023-04-25T13:16:29.362Z,12.80
2023-04-25T13:18:57.371Z,12.90
2023-04-25T13:21:24.641Z,12.90
2023-04-25T13:23:52.113Z,13.30
2023-04-25T13:26:19.359Z,12.80
2023-04-25T13:28:46.558Z,12.70
2023-04-25T13:31:13.696Z,11.40
2023-04-25T13:33:41.189Z,11.00
2023-04-25T13:36:08.468Z,12.00
2023-04-25T13:38:35.447Z,12.00
2023-04-25T13:41:02.426Z,11.70
2023-04-25T13:43:29.413Z,11.50
2023-04-25T13:45:56.410Z,10.90
2023-04-25T13:48:24.363Z,10.50
2023-04-25T13:50:51.748Z,11.40
2023-04-25T13:53:18.757Z,12.50
2023-04-25T13:55:45.940Z,13.30
2023-04-25T13:58:12.900Z,13.90
2023-04-25T14:00:41.005Z,13.40
2023-04-25T14:03:11.060Z,12.70
2023-04-25T14:05:39.319Z,11.60
2023-04-25T14:08:11.171Z,10.30
2023-04-25T14:10:38.842Z,10.30
2023-04-25T14:13:07.350Z,10.00
2023-04-25T14:15:36.096Z,9.60
2023-04-25T14:18:03.773Z,9.30
2023-04-25T14:20:31.420Z,9.20
2023-04-25T14:22:59.377Z,9.00
2023-04-25T14:25:26.746Z,9.10
2023-04-25T14:27:53.833Z,9.00
2023-04-25T14:30:22.446Z,8.80
2023-04-25T14:32:52.564Z,8.90
2023-04-25T14:35:19.684Z,9.10
2023-04-25T14:37:46.761Z,9.30
2023-04-25T14:40:16.663Z,9.60
2023-04-25T14:42:43.798Z,9.60
2023-04-25T14:45:11.650Z,9.50
2023-04-25T14:47:39.055Z,9.10
2023-04-25T14:50:07.277Z,9.00
2023-04-25T14:52:34.392Z,9.70
2023-04-25T14:55:05.951Z,10.50
2023-04-25T14:57:34.197Z,10.50
2023-04-25T15:00:02.127Z,10.50
2023-04-25T15:02:29.511Z,10.30
2023-04-25T15:04:57.256Z,10.20
2023-04-25T15:07:24.864Z,10.30
2023-04-25T15:09:51.895Z,10.20
2023-04-25T15:12:19.213Z,10.30
2023-04-25T15:14:46.437Z,10.70
2023-04-25T15:17:15.163Z,10.90
2023-04-25T15:19:42.198Z,10.90
2023-04-25T15:22:09.241Z,11.40
2023-04-25T15:24:36.621Z,11.90
2023-04-25T15:27:04.272Z,12.10
2023-04-25T15:29:31.370Z,11.90
2023-04-25T15:31:58.761Z,11.40
2023-04-25T15:34:25.947Z,10.30
2023-04-25T15:36:52.942Z,10.40
2023-04-25T15:39:20.072Z,10.40
2023-04-25T15:41:48.026Z,10.60
2023-04-25T15:44:15.001Z,10.30
2023-04-25T15:46:42.086Z,10.20
2023-04-25T15:49:09.062Z,9.60
2023-04-25T15:51:36.094Z,9.50
2023-04-25T15:54:04.316Z,9.40
2023-04-25T15:56:31.581Z,9.60
2023-04-25T15:58:58.763Z,9.40
2023-04-25T16:01:29.196Z,9.00
2023-04-25T16:03:58.389Z,9.10
2023-04-25T16:06:27.119Z,9.40
2023-04-25T16:08:55.183Z,9.60
2023-04-25T16:11:22.351Z,9.80
2023-04-25T16:13:49.908Z,9.80
2023-04-25T16:16:17.290Z,10.20
2023-04-25T16:18:44.367Z,10.40
2023-04-25T16:21:17.100Z,10.20
2023-04-25T16:23:44.286Z,10.20
2023-04-25T16:26:11.475Z,9.70
2023-04-25T16:28:38.416Z,9.60
2023-04-25T16:31:06.051Z,9.20
2023-04-25T16:33:34.436Z,9.00
2023-04-25T16:36:01.772Z,8.70
2023-04-25T16:38:28.761Z,8.90
2023-04-25T16:40:55.743Z,9.00
2023-04-25T16:43:22.993Z,9.10
2023-04-25T16:45:50.170Z,9.20
2023-04-25T16:48:20.036Z,8.90
2023-04-25T16:50:47.043Z,8.40
2023-04-25T16:53:14.039Z,7.80
2023-04-25T16:55:41.230Z,8.20
2023-04-25T16:58:10.394Z,8.10
2023-04-25T17:00:37.812Z,8.00
2023-04-25T17:03:05.285Z,7.80
2023-04-25T17:05:32.650Z,7.40
2023-04-25T17:08:00.210Z,7.20
2023-04-25T17:10:28.145Z,7.40
2023-04-25T17:12:55.262Z,7.30
2023-04-25T17:15:22.471Z,7.40
2023-04-25T17:17:49.664Z,7.50
2023-04-25T17:20:16.835Z,7.60
2023-04-25T17:22:44.343Z,7.60
2023-04-25T17:25:11.729Z,7.60
2023-04-25T17:27:38.744Z,7.70
2023-04-25T17:30:07.230Z,7.80
2023-04-25T17:32:34.616Z,7.90
2023-04-25T17:35:01.716Z,7.90
2023-04-25T17:37:28.771Z,7.80
2023-04-25T17:39:55.997Z,7.90
2023-04-25T17:42:23.095Z,7.70
2023-04-25T17:44:50.402Z,7.60
2023-04-25T17:47:17.511Z,7.50
2023-04-25T17:49:44.452Z,7.40
2023-04-25T17:52:11.483Z,7.40
2023-04-25T17:54:39.966Z,7.40
2023-04-25T17:57:07.437Z,7.30
2023-04-25T17:59:34.912Z,7.40
2023-04-25T18:02:03.687Z,7.40
2023-04-25T18:04:30.925Z,7.50
2023-04-25T18:06:58.320Z,7.40
2023-04-25T18:09:25.942Z,7.40
2023-04-25T18:11:54.886Z,7.30
2023-04-25T18:14:22.307Z,7.00
2023-04-25T18:16:55.186Z,6.70
2023-04-25T18:19:23.162Z,6.60
2023-04-25T18:21:53.322Z,6.40
2023-04-25T18:24:22.238Z,6.50
2023-04-25T18:26:49.802Z,6.40
2023-04-25T18:29:29.374Z,6.40
2023-04-25T18:31:59.898Z,6.40
2023-04-25T18:34:27.619Z,6.40
2023-04-25T18:36:56.627Z,6.30
2023-04-25T18:39:27.179Z,6.30
2023-04-25T18:42:03.376Z,6.40
2023-04-25T18:44:35.733Z,6.40
2023-04-25T18:47:03.028Z,6.40
2023-04-25T18:49:30.024Z,6.30
2023-04-25T18:51:58.217Z,6.30
2023-04-25T18:54:25.366Z,6.00
2023-04-25T18:56:52.551Z,5.60
2023-04-25T18:59:19.564Z,5.40
2023-04-25T19:01:46.859Z,5.20
2023-04-25T19:04:14.013Z,5.00
2023-04-25T19:06:41.360Z,4.90
2023-04-25T19:09:10.357Z,4.80
2023-04-25T19:11:38.303Z,4.80
2023-04-25T19:14:06.062Z,4.80
2023-04-25T19:16:39.274Z,4.80
2023-04-25T19:19:10.002Z,4.70
2023-04-25T19:21:37.125Z,4.90
2023-04-25T19:24:06.653Z,5.20
2023-04-25T19:26:33.902Z,5.30
2023-04-25T19:29:18.950Z,5.30
2023-04-25T19:31:45.969Z,5.30
2023-04-25T19:34:13.479Z,5.20
2023-04-25T19:36:42.663Z,4.80
2023-04-25T19:39:09.928Z,4.40
2023-04-25T19:41:39.072Z,4.20
2023-04-25T19:44:08.534Z,4.10
2023-04-25T19:46:37.067Z,4.00
2023-04-25T19:49:07.710Z,3.80
2023-04-25T19:51:35.490Z,3.60
2023-04-25T19:54:02.514Z,3.50
2023-04-25T19:56:30.163Z,3.50
2023-04-25T19:58:58.617Z,3.30
2023-04-25T20:01:26.373Z,3.30
2023-04-25T20:03:53.818Z,3.30
2023-04-25T20:06:21.741Z,3.20
2023-04-25T20:08:49.313Z,3.20
2023-04-25T20:11:16.312Z,3.20
2023-04-25T20:13:43.369Z,3.20
2023-04-25T20:16:10.808Z,3.30
2023-04-25T20:18:37.992Z,3.30
2023-04-25T20:21:04.940Z,3.20
2023-04-25T20:23:32.060Z,3.10
2023-04-25T20:25:59.348Z,3.10
2023-04-25T20:28:27.454Z,3.00
2023-04-25T20:30:54.952Z,3.10
2023-04-25T20:33:22.537Z,3.10
2023-04-25T20:35:49.615Z,3.10
2023-04-25T20:38:17.235Z,3.20
2023-04-25T20:40:44.399Z,3.20
2023-04-25T20:43:12.104Z,3.10
2023-04-25T20:45:40.589Z,3.10
2023-04-25T20:48:07.959Z,3.00
2023-04-25T20:50:35.159Z,3.00
2023-04-25T20:53:03.597Z,2.90
2023-04-25T20:55:31.217Z,2.90
2023-04-25T20:57:58.737Z,2.80
2023-04-25T21:00:29.369Z,2.70
2023-04-25T21:02:57.793Z,2.60
2023-04-25T21:05:25.047Z,2.50
2023-04-25T21:07:52.432Z,2.50
2023-04-25T21:10:19.522Z,2.50
2023-04-25T21:12:50.028Z,2.50
2023-04-25T21:15:18.162Z,2.50
2023-04-25T21:17:47.551Z,2.50
2023-04-25T21:20:20.468Z,2.50
2023-04-25T21:22:53.765Z,2.50
2023-04-25T21:25:25.575Z,2.50
2023-04-25T21:27:53.788Z,2.60
2023-04-25T21:30:23.612Z,2.50
2023-04-25T21:32:51.610Z,2.50
2023-04-25T21:35:19.938Z,2.50
2023-04-25T21:37:47.438Z,2.50
2023-04-25T21:40:15.204Z,2.40
2023-04-25T21:42:44.673Z,2.40
2023-04-25T21:45:12.326Z,2.30
2023-04-25T21:47:39.890Z,2.30
2023-04-25T21:50:08.028Z,2.20
2023-04-25T21:52:36.546Z,2.40
2023-04-25T21:55:03.666Z,2.60
2023-04-25T21:57:30.797Z,2.70
2023-04-25T21:59:58.262Z,2.70
2023-04-25T22:02:25.688Z,2.70
2023-04-25T22:04:52.837Z,2.80
2023-04-25T22:07:19.907Z,2.80
2023-04-25T22:09:55.189Z,2.90
2023-04-25T22:12:23.909Z,2.80
2023-04-25T22:14:51.203Z,2.80
2023-04-25T22:17:18.933Z,2.70
2023-04-25T22:19:47.338Z,2.70
2023-04-25T22:22:14.558Z,2.70
2023-04-25T22:24:42.531Z,2.80
2023-04-25T22:27:11.128Z,2.80
2023-04-25T22:29:38.160Z,2.70
2023-04-25T22:32:05.387Z,2.40
2023-04-25T22:34:32.302Z,2.30
2023-04-25T22:36:59.685Z,2.30
2023-04-25T22:39:26.974Z,2.20
2023-04-25T22:41:54.601Z,2.10
2023-04-25T22:44:22.421Z,2.10
2023-04-25T22:46:49.460Z,2.10
2023-04-25T22:49:17.635Z,2.00
2023-04-25T22:51:44.544Z,2.00
2023-04-25T22:54:11.517Z,1.90
2023-04-25T22:56:38.483Z,1.90
2023-04-25T22:59:06.587Z,1.90
2023-04-25T23:01:33.607Z,1.70
2023-04-25T23:04:00.777Z,1.70
2023-04-25T23:06:28.017Z,1.70
2023-04-25T23:08:55.446Z,1.70
2023-04-25T23:11:23.922Z,1.70
2023-04-25T23:13:50.932Z,1.70
2023-04-25T23:16:18.333Z,1.70
2023-04-25T23:18:45.327Z,1.60
2023-04-25T23:21:12.454Z,1.60
2023-04-25T23:23:39.986Z,1.70
2023-04-25T23:26:08.448Z,1.70
2023-04-25T23:28:35.412Z,1.70
2023-04-25T23:31:10.342Z,1.60
2023-04-25T23:33:37.768Z,1.60
2023-04-25T23:36:05.464Z,1.60
2023-04-25T23:38:32.945Z,1.60
2023-04-25T23:41:00.021Z,1.60
2023-04-25T23:43:26.912Z,1.50
2023-04-25T23:45:55.460Z,1.40
2023-04-25T23:48:23.220Z,1.40
2023-04-25T23:50:50.103Z,1.40
2023-04-25T23:53:17.216Z,1.50
2023-04-25T23:55:44.181Z,1.50
2023-04-25T23:58:11.198Z,1.50
